sensor_id;sensor_type;location;lat;lon;timestamp;temperature;humidity
728;DHT22;347;48.780;9.158;2023-06-26T00:00:12;24.10;10.00
728;DHT22;347;48.780;9.158;2023-06-26T00:02:37;24.10;10.10
728;DHT22;347;48.780;9.158;2023-06-26T00:05:04;24.10;10.40
728;DHT22;347;48.780;9.158;2023-06-26T00:07:30;24.10;10.50
728;DHT22;347;48.780;9.158;2023-06-26T00:09:57;24.00;10.40
728;DHT22;347;48.780;9.158;2023-06-26T00:12:22;24.00;10.50
728;DHT22;347;48.780;9.158;2023-06-26T00:14:48;24.00;10.40
728;DHT22;347;48.780;9.158;2023-06-26T00:17:13;24.00;10.30
728;DHT22;347;48.780;9.158;2023-06-26T00:19:39;24.00;10.20
728;DHT22;347;48.780;9.158;2023-06-26T00:22:04;24.00;10.20
728;DHT22;347;48.780;9.158;2023-06-26T00:24:30;23.90;10.20
728;DHT22;347;48.780;9.158;2023-06-26T00:26:55;23.90;10.30
728;DHT22;347;48.780;9.158;2023-06-26T00:29:21;23.90;10.40
728;DHT22;347;48.780;9.158;2023-06-26T00:31:47;23.90;10.50
728;DHT22;347;48.780;9.158;2023-06-26T00:34:12;23.90;10.50
728;DHT22;347;48.780;9.158;2023-06-26T00:36:38;23.80;10.50
728;DHT22;347;48.780;9.158;2023-06-26T00:39:03;23.90;10.70
728;DHT22;347;48.780;9.158;2023-06-26T00:41:29;23.80;10.90
728;DHT22;347;48.780;9.158;2023-06-26T00:43:55;23.80;10.90
728;DHT22;347;48.780;9.158;2023-06-26T00:46:20;23.80;11.20
728;DHT22;347;48.780;9.158;2023-06-26T00:48:48;23.80;11.30
728;DHT22;347;48.780;9.158;2023-06-26T00:51:14;23.70;11.20
728;DHT22;347;48.780;9.158;2023-06-26T00:53:39;23.70;11.20
728;DHT22;347;48.780;9.158;2023-06-26T00:56:05;23.70;11.20
728;DHT22;347;48.780;9.158;2023-06-26T00:58:32;23.70;11.20
728;DHT22;347;48.780;9.158;2023-06-26T01:00:57;23.70;11.20
728;DHT22;347;48.780;9.158;2023-06-26T01:03:24;23.70;11.40
728;DHT22;347;48.780;9.158;2023-06-26T01:05:51;23.60;11.40
728;DHT22;347;48.780;9.158;2023-06-26T01:08:18;23.60;11.50
728;DHT22;347;48.780;9.158;2023-06-26T01:10:44;23.60;11.50
728;DHT22;347;48.780;9.158;2023-06-26T01:13:10;23.60;11.50
728;DHT22;347;48.780;9.158;2023-06-26T01:15:36;23.60;11.50
728;DHT22;347;48.780;9.158;2023-06-26T01:18:02;23.60;11.40
728;DHT22;347;48.780;9.158;2023-06-26T01:20:36;23.60;11.50
728;DHT22;347;48.780;9.158;2023-06-26T01:28:10;23.50;11.60
728;DHT22;347;48.780;9.158;2023-06-26T01:30:45;23.50;11.60
728;DHT22;347;48.780;9.158;2023-06-26T01:33:12;23.50;11.70
728;DHT22;347;48.780;9.158;2023-06-26T01:35:39;23.50;11.70
728;DHT22;347;48.780;9.158;2023-06-26T01:38:17;23.50;11.50
728;DHT22;347;48.780;9.158;2023-06-26T01:40:43;23.50;11.80
728;DHT22;347;48.780;9.158;2023-06-26T01:43:16;23.50;11.80
728;DHT22;347;48.780;9.158;2023-06-26T01:45:45;23.50;11.70
728;DHT22;347;48.780;9.158;2023-06-26T01:48:13;23.50;11.70
728;DHT22;347;48.780;9.158;2023-06-26T01:50:40;23.50;11.60
728;DHT22;347;48.780;9.158;2023-06-26T01:53:12;23.40;11.70
728;DHT22;347;48.780;9.158;2023-06-26T01:55:51;23.40;11.60
728;DHT22;347;48.780;9.158;2023-06-26T01:58:20;23.30;11.60
728;DHT22;347;48.780;9.158;2023-06-26T02:00:47;23.30;11.90
728;DHT22;347;48.780;9.158;2023-06-26T02:03:13;23.30;11.80
728;DHT22;347;48.780;9.158;2023-06-26T02:09:34;23.30;11.80
728;DHT22;347;48.780;9.158;2023-06-26T02:12:00;23.30;11.90
728;DHT22;347;48.780;9.158;2023-06-26T02:14:25;23.30;12.00
728;DHT22;347;48.780;9.158;2023-06-26T02:16:51;23.30;12.00
728;DHT22;347;48.780;9.158;2023-06-26T02:19:16;23.30;12.00
728;DHT22;347;48.780;9.158;2023-06-26T02:21:48;23.30;12.10
728;DHT22;347;48.780;9.158;2023-06-26T02:24:13;23.30;12.10
728;DHT22;347;48.780;9.158;2023-06-26T02:26:39;23.30;12.20
728;DHT22;347;48.780;9.158;2023-06-26T02:29:04;23.30;12.30
728;DHT22;347;48.780;9.158;2023-06-26T02:31:30;23.20;12.40
728;DHT22;347;48.780;9.158;2023-06-26T02:33:55;23.20;12.40
728;DHT22;347;48.780;9.158;2023-06-26T02:36:21;23.20;12.50
728;DHT22;347;48.780;9.158;2023-06-26T02:38:46;23.20;12.50
728;DHT22;347;48.780;9.158;2023-06-26T02:41:12;23.20;12.50
728;DHT22;347;48.780;9.158;2023-06-26T02:43:38;23.20;12.60
728;DHT22;347;48.780;9.158;2023-06-26T02:46:03;23.20;12.80
728;DHT22;347;48.780;9.158;2023-06-26T02:48:29;23.10;12.90
728;DHT22;347;48.780;9.158;2023-06-26T02:50:54;23.10;12.80
728;DHT22;347;48.780;9.158;2023-06-26T02:53:20;23.10;12.80
728;DHT22;347;48.780;9.158;2023-06-26T02:55:45;23.00;12.90
728;DHT22;347;48.780;9.158;2023-06-26T02:58:13;23.10;13.00
728;DHT22;347;48.780;9.158;2023-06-26T03:00:38;23.10;13.10
728;DHT22;347;48.780;9.158;2023-06-26T03:03:07;23.00;13.00
728;DHT22;347;48.780;9.158;2023-06-26T03:05:33;23.10;13.20
728;DHT22;347;48.780;9.158;2023-06-26T03:07:58;23.00;13.10
728;DHT22;347;48.780;9.158;2023-06-26T03:10:24;23.00;13.20
728;DHT22;347;48.780;9.158;2023-06-26T03:12:49;23.00;13.40
728;DHT22;347;48.780;9.158;2023-06-26T03:15:15;23.00;13.40
728;DHT22;347;48.780;9.158;2023-06-26T03:17:40;22.90;13.30
728;DHT22;347;48.780;9.158;2023-06-26T03:20:06;23.00;13.30
728;DHT22;347;48.780;9.158;2023-06-26T03:22:33;23.00;13.40
728;DHT22;347;48.780;9.158;2023-06-26T03:24:58;23.00;13.30
728;DHT22;347;48.780;9.158;2023-06-26T03:27:24;22.90;13.40
728;DHT22;347;48.780;9.158;2023-06-26T03:29:52;23.00;13.40
728;DHT22;347;48.780;9.158;2023-06-26T03:32:18;23.00;13.30
728;DHT22;347;48.780;9.158;2023-06-26T03:34:43;23.00;13.30
728;DHT22;347;48.780;9.158;2023-06-26T03:37:09;22.90;13.30
728;DHT22;347;48.780;9.158;2023-06-26T03:39:34;23.00;13.40
728;DHT22;347;48.780;9.158;2023-06-26T03:42:00;23.00;13.40
728;DHT22;347;48.780;9.158;2023-06-26T03:44:27;22.90;13.20
728;DHT22;347;48.780;9.158;2023-06-26T03:46:52;23.00;13.30
728;DHT22;347;48.780;9.158;2023-06-26T03:49:18;23.00;13.30
728;DHT22;347;48.780;9.158;2023-06-26T03:51:44;22.90;13.10
728;DHT22;347;48.780;9.158;2023-06-26T03:54:10;23.00;13.20
728;DHT22;347;48.780;9.158;2023-06-26T03:56:35;23.00;13.00
728;DHT22;347;48.780;9.158;2023-06-26T03:59:01;23.00;13.00
728;DHT22;347;48.780;9.158;2023-06-26T04:01:27;23.00;13.30
728;DHT22;347;48.780;9.158;2023-06-26T04:03:53;23.00;13.30
728;DHT22;347;48.780;9.158;2023-06-26T04:06:18;23.00;13.40
728;DHT22;347;48.780;9.158;2023-06-26T04:08:44;22.90;13.60
728;DHT22;347;48.780;9.158;2023-06-26T04:11:10;23.00;13.50
728;DHT22;347;48.780;9.158;2023-06-26T04:13:36;23.00;13.40
728;DHT22;347;48.780;9.158;2023-06-26T04:16:01;23.00;13.20
728;DHT22;347;48.780;9.158;2023-06-26T04:18:27;23.00;13.30
728;DHT22;347;48.780;9.158;2023-06-26T04:23:35;23.00;13.30
728;DHT22;347;48.780;9.158;2023-06-26T04:26:01;23.10;13.60
728;DHT22;347;48.780;9.158;2023-06-26T04:28:28;23.10;13.90
728;DHT22;347;48.780;9.158;2023-06-26T04:30:54;23.10;13.90
728;DHT22;347;48.780;9.158;2023-06-26T04:33:19;23.10;14.00
728;DHT22;347;48.780;9.158;2023-06-26T04:35:45;23.10;14.20
728;DHT22;347;48.780;9.158;2023-06-26T04:38:14;23.10;14.20
728;DHT22;347;48.780;9.158;2023-06-26T04:40:40;23.10;14.20
728;DHT22;347;48.780;9.158;2023-06-26T04:43:06;23.10;14.50
728;DHT22;347;48.780;9.158;2023-06-26T04:45:31;23.10;14.70
728;DHT22;347;48.780;9.158;2023-06-26T04:47:57;23.10;14.70
728;DHT22;347;48.780;9.158;2023-06-26T04:50:23;23.10;14.70
728;DHT22;347;48.780;9.158;2023-06-26T04:52:48;23.00;15.10
728;DHT22;347;48.780;9.158;2023-06-26T04:55:14;23.10;15.80
728;DHT22;347;48.780;9.158;2023-06-26T04:57:39;23.10;15.20
728;DHT22;347;48.780;9.158;2023-06-26T05:00:05;23.10;15.20
728;DHT22;347;48.780;9.158;2023-06-26T05:02:35;23.10;15.20
728;DHT22;347;48.780;9.158;2023-06-26T05:05:00;23.10;15.20
728;DHT22;347;48.780;9.158;2023-06-26T05:07:26;23.10;15.20
728;DHT22;347;48.780;9.158;2023-06-26T05:09:51;23.10;15.20
728;DHT22;347;48.780;9.158;2023-06-26T05:12:17;23.10;15.20
728;DHT22;347;48.780;9.158;2023-06-26T05:14:43;23.10;15.20
728;DHT22;347;48.780;9.158;2023-06-26T05:17:08;23.10;15.30
728;DHT22;347;48.780;9.158;2023-06-26T05:19:34;23.10;15.40
728;DHT22;347;48.780;9.158;2023-06-26T05:22:01;23.10;15.30
728;DHT22;347;48.780;9.158;2023-06-26T05:24:30;23.20;15.80
728;DHT22;347;48.780;9.158;2023-06-26T05:26:55;23.20;15.30
728;DHT22;347;48.780;9.158;2023-06-26T05:29:21;23.20;15.30
728;DHT22;347;48.780;9.158;2023-06-26T05:31:49;23.30;15.30
728;DHT22;347;48.780;9.158;2023-06-26T05:34:17;23.20;15.30
728;DHT22;347;48.780;9.158;2023-06-26T05:36:44;23.30;15.30
728;DHT22;347;48.780;9.158;2023-06-26T05:39:11;23.30;15.30
728;DHT22;347;48.780;9.158;2023-06-26T05:41:37;23.30;15.30
728;DHT22;347;48.780;9.158;2023-06-26T05:44:02;23.40;15.30
728;DHT22;347;48.780;9.158;2023-06-26T05:46:28;23.40;15.20
728;DHT22;347;48.780;9.158;2023-06-26T05:48:54;23.40;15.00
728;DHT22;347;48.780;9.158;2023-06-26T05:51:19;23.40;14.80
728;DHT22;347;48.780;9.158;2023-06-26T05:53:45;23.50;15.40
728;DHT22;347;48.780;9.158;2023-06-26T05:56:11;23.60;14.70
728;DHT22;347;48.780;9.158;2023-06-26T05:58:37;23.70;14.70
728;DHT22;347;48.780;9.158;2023-06-26T06:01:02;23.70;14.60
728;DHT22;347;48.780;9.158;2023-06-26T06:03:28;23.70;14.60
728;DHT22;347;48.780;9.158;2023-06-26T06:05:53;23.80;14.60
728;DHT22;347;48.780;9.158;2023-06-26T06:08:19;23.80;14.50
728;DHT22;347;48.780;9.158;2023-06-26T06:10:44;23.80;14.60
728;DHT22;347;48.780;9.158;2023-06-26T06:13:10;23.90;14.70
728;DHT22;347;48.780;9.158;2023-06-26T06:15:35;23.90;14.60
728;DHT22;347;48.780;9.158;2023-06-26T06:18:01;23.90;14.60
728;DHT22;347;48.780;9.158;2023-06-26T06:20:27;23.90;14.70
728;DHT22;347;48.780;9.158;2023-06-26T06:22:52;24.00;15.20
728;DHT22;347;48.780;9.158;2023-06-26T06:25:18;24.00;15.20
728;DHT22;347;48.780;9.158;2023-06-26T06:27:44;24.00;15.40
728;DHT22;347;48.780;9.158;2023-06-26T06:30:10;24.00;14.80
728;DHT22;347;48.780;9.158;2023-06-26T06:32:36;24.10;14.80
728;DHT22;347;48.780;9.158;2023-06-26T06:35:01;24.20;15.00
728;DHT22;347;48.780;9.158;2023-06-26T06:37:36;24.20;14.70
728;DHT22;347;48.780;9.158;2023-06-26T06:40:01;24.30;13.10
728;DHT22;347;48.780;9.158;2023-06-26T06:42:27;24.30;13.10
728;DHT22;347;48.780;9.158;2023-06-26T06:44:52;24.50;13.60
728;DHT22;347;48.780;9.158;2023-06-26T06:47:18;24.50;13.60
728;DHT22;347;48.780;9.158;2023-06-26T06:49:43;24.60;13.10
728;DHT22;347;48.780;9.158;2023-06-26T06:52:09;24.70;12.60
728;DHT22;347;48.780;9.158;2023-06-26T06:54:51;24.80;12.40
728;DHT22;347;48.780;9.158;2023-06-26T06:57:17;25.00;12.00
728;DHT22;347;48.780;9.158;2023-06-26T06:59:42;25.20;11.60
728;DHT22;347;48.780;9.158;2023-06-26T07:02:08;25.50;11.10
728;DHT22;347;48.780;9.158;2023-06-26T07:04:33;25.70;10.80
728;DHT22;347;48.780;9.158;2023-06-26T07:06:59;25.70;11.30
728;DHT22;347;48.780;9.158;2023-06-26T07:09:24;25.70;12.40
728;DHT22;347;48.780;9.158;2023-06-26T07:11:50;25.70;12.70
728;DHT22;347;48.780;9.158;2023-06-26T07:14:15;25.70;12.50
728;DHT22;347;48.780;9.158;2023-06-26T07:16:41;25.60;12.70
728;DHT22;347;48.780;9.158;2023-06-26T07:19:06;25.70;12.40
728;DHT22;347;48.780;9.158;2023-06-26T07:21:32;25.80;12.60
728;DHT22;347;48.780;9.158;2023-06-26T07:23:57;25.90;12.80
728;DHT22;347;48.780;9.158;2023-06-26T07:26:23;25.90;12.50
728;DHT22;347;48.780;9.158;2023-06-26T07:28:48;26.00;12.60
728;DHT22;347;48.780;9.158;2023-06-26T07:31:14;26.00;12.60
728;DHT22;347;48.780;9.158;2023-06-26T07:33:42;26.00;12.60
728;DHT22;347;48.780;9.158;2023-06-26T07:36:07;26.10;12.60
728;DHT22;347;48.780;9.158;2023-06-26T07:38:33;26.20;12.30
728;DHT22;347;48.780;9.158;2023-06-26T07:40:58;26.20;12.40
728;DHT22;347;48.780;9.158;2023-06-26T07:43:24;26.40;12.20
728;DHT22;347;48.780;9.158;2023-06-26T07:45:49;26.60;12.40
728;DHT22;347;48.780;9.158;2023-06-26T07:48:16;26.60;11.40
728;DHT22;347;48.780;9.158;2023-06-26T07:50:42;26.60;11.40
728;DHT22;347;48.780;9.158;2023-06-26T07:53:08;26.70;10.70
728;DHT22;347;48.780;9.158;2023-06-26T07:55:33;26.80;11.00
728;DHT22;347;48.780;9.158;2023-06-26T07:57:59;26.90;10.90
728;DHT22;347;48.780;9.158;2023-06-26T08:00:26;27.10;10.80
728;DHT22;347;48.780;9.158;2023-06-26T08:02:52;27.30;10.30
728;DHT22;347;48.780;9.158;2023-06-26T08:05:17;27.30;10.10
728;DHT22;347;48.780;9.158;2023-06-26T08:07:43;27.20;10.60
728;DHT22;347;48.780;9.158;2023-06-26T08:10:09;27.20;9.90
728;DHT22;347;48.780;9.158;2023-06-26T08:12:35;27.30;9.80
728;DHT22;347;48.780;9.158;2023-06-26T08:15:02;27.40;9.80
728;DHT22;347;48.780;9.158;2023-06-26T08:17:28;27.50;8.80
728;DHT22;347;48.780;9.158;2023-06-26T08:19:53;27.70;8.90
728;DHT22;347;48.780;9.158;2023-06-26T08:22:19;27.70;8.90
728;DHT22;347;48.780;9.158;2023-06-26T08:24:45;27.80;8.80
728;DHT22;347;48.780;9.158;2023-06-26T08:27:10;27.70;8.70
728;DHT22;347;48.780;9.158;2023-06-26T08:29:36;27.70;7.90
728;DHT22;347;48.780;9.158;2023-06-26T08:32:01;27.70;8.10
728;DHT22;347;48.780;9.158;2023-06-26T08:34:27;27.70;8.00
728;DHT22;347;48.780;9.158;2023-06-26T08:36:53;27.70;7.80
728;DHT22;347;48.780;9.158;2023-06-26T08:39:18;27.70;8.10
728;DHT22;347;48.780;9.158;2023-06-26T08:41:52;27.70;8.10
728;DHT22;347;48.780;9.158;2023-06-26T08:44:20;27.60;8.50
728;DHT22;347;48.780;9.158;2023-06-26T08:46:50;27.60;8.90
728;DHT22;347;48.780;9.158;2023-06-26T08:49:33;27.60;8.60
728;DHT22;347;48.780;9.158;2023-06-26T08:52:12;27.60;8.80
728;DHT22;347;48.780;9.158;2023-06-26T08:54:44;27.60;8.90
728;DHT22;347;48.780;9.158;2023-06-26T08:57:11;27.60;7.90
728;DHT22;347;48.780;9.158;2023-06-26T08:59:36;27.60;8.60
728;DHT22;347;48.780;9.158;2023-06-26T09:02:02;27.70;7.70
728;DHT22;347;48.780;9.158;2023-06-26T09:04:28;27.70;8.00
728;DHT22;347;48.780;9.158;2023-06-26T09:06:54;27.70;8.00
728;DHT22;347;48.780;9.158;2023-06-26T09:09:19;27.70;8.10
728;DHT22;347;48.780;9.158;2023-06-26T09:11:45;27.70;7.50
728;DHT22;347;48.780;9.158;2023-06-26T09:14:12;27.80;7.70
728;DHT22;347;48.780;9.158;2023-06-26T09:16:41;27.80;7.90
728;DHT22;347;48.780;9.158;2023-06-26T09:19:09;27.80;7.70
728;DHT22;347;48.780;9.158;2023-06-26T09:21:37;27.90;7.30
728;DHT22;347;48.780;9.158;2023-06-26T09:24:03;28.00;7.00
728;DHT22;347;48.780;9.158;2023-06-26T09:26:28;28.10;6.70
728;DHT22;347;48.780;9.158;2023-06-26T09:28:55;28.30;7.00
728;DHT22;347;48.780;9.158;2023-06-26T09:31:23;28.30;7.00
728;DHT22;347;48.780;9.158;2023-06-26T09:33:57;28.30;6.60
728;DHT22;347;48.780;9.158;2023-06-26T09:36:23;28.30;6.60
728;DHT22;347;48.780;9.158;2023-06-26T09:38:52;28.30;6.80
728;DHT22;347;48.780;9.158;2023-06-26T09:41:18;28.30;6.80
728;DHT22;347;48.780;9.158;2023-06-26T09:43:50;28.30;6.50
728;DHT22;347;48.780;9.158;2023-06-26T09:46:17;28.40;6.40
728;DHT22;347;48.780;9.158;2023-06-26T09:48:43;28.50;6.60
728;DHT22;347;48.780;9.158;2023-06-26T09:51:09;28.50;6.70
728;DHT22;347;48.780;9.158;2023-06-26T09:53:35;28.60;6.60
728;DHT22;347;48.780;9.158;2023-06-26T09:56:07;28.70;6.60
728;DHT22;347;48.780;9.158;2023-06-26T09:58:33;28.80;6.40
728;DHT22;347;48.780;9.158;2023-06-26T10:00:59;28.90;6.60
728;DHT22;347;48.780;9.158;2023-06-26T10:03:25;28.90;6.70
728;DHT22;347;48.780;9.158;2023-06-26T10:05:52;29.00;7.00
728;DHT22;347;48.780;9.158;2023-06-26T10:08:17;28.90;6.60
728;DHT22;347;48.780;9.158;2023-06-26T10:10:44;29.00;6.80
728;DHT22;347;48.780;9.158;2023-06-26T10:13:24;29.10;6.80
728;DHT22;347;48.780;9.158;2023-06-26T10:15:52;29.30;6.30
728;DHT22;347;48.780;9.158;2023-06-26T10:18:21;29.50;6.30
728;DHT22;347;48.780;9.158;2023-06-26T10:20:51;29.50;6.50
728;DHT22;347;48.780;9.158;2023-06-26T10:23:19;29.40;6.80
728;DHT22;347;48.780;9.158;2023-06-26T10:25:46;29.20;6.90
728;DHT22;347;48.780;9.158;2023-06-26T10:28:15;29.10;7.50
728;DHT22;347;48.780;9.158;2023-06-26T10:30:43;29.00;7.30
728;DHT22;347;48.780;9.158;2023-06-26T10:33:10;28.90;7.50
728;DHT22;347;48.780;9.158;2023-06-26T10:35:44;28.80;7.60
728;DHT22;347;48.780;9.158;2023-06-26T10:38:10;29.00;7.80
728;DHT22;347;48.780;9.158;2023-06-26T10:40:46;29.00;8.20
728;DHT22;347;48.780;9.158;2023-06-26T10:43:14;29.00;8.10
728;DHT22;347;48.780;9.158;2023-06-26T10:45:45;29.20;7.80
728;DHT22;347;48.780;9.158;2023-06-26T10:48:14;29.50;5.90
728;DHT22;347;48.780;9.158;2023-06-26T10:50:39;29.80;6.00
728;DHT22;347;48.780;9.158;2023-06-26T10:56:04;29.90;5.50
728;DHT22;347;48.780;9.158;2023-06-26T11:03:47;29.90;5.70
728;DHT22;347;48.780;9.158;2023-06-26T11:06:18;30.00;5.50
728;DHT22;347;48.780;9.158;2023-06-26T11:08:45;30.00;5.90
728;DHT22;347;48.780;9.158;2023-06-26T11:11:12;29.90;5.90
728;DHT22;347;48.780;9.158;2023-06-26T11:13:39;30.20;5.30
728;DHT22;347;48.780;9.158;2023-06-26T11:16:05;30.40;4.80
728;DHT22;347;48.780;9.158;2023-06-26T11:18:31;30.50;5.00
728;DHT22;347;48.780;9.158;2023-06-26T11:21:11;30.60;4.40
728;DHT22;347;48.780;9.158;2023-06-26T11:23:39;30.70;4.50
728;DHT22;347;48.780;9.158;2023-06-26T11:26:19;30.60;4.60
728;DHT22;347;48.780;9.158;2023-06-26T11:28:51;30.70;3.90
728;DHT22;347;48.780;9.158;2023-06-26T11:31:32;30.60;4.20
728;DHT22;347;48.780;9.158;2023-06-26T11:34:03;30.50;4.50
728;DHT22;347;48.780;9.158;2023-06-26T11:36:29;30.60;5.20
728;DHT22;347;48.780;9.158;2023-06-26T11:38:56;30.50;5.30
728;DHT22;347;48.780;9.158;2023-06-26T11:41:22;30.20;6.00
728;DHT22;347;48.780;9.158;2023-06-26T11:43:49;30.00;6.40
728;DHT22;347;48.780;9.158;2023-06-26T11:46:17;29.90;6.90
728;DHT22;347;48.780;9.158;2023-06-26T11:48:43;29.70;7.10
728;DHT22;347;48.780;9.158;2023-06-26T11:51:09;29.50;7.50
728;DHT22;347;48.780;9.158;2023-06-26T11:53:42;29.50;7.30
728;DHT22;347;48.780;9.158;2023-06-26T11:56:12;29.50;7.40
728;DHT22;347;48.780;9.158;2023-06-26T11:59:00;29.40;7.70
728;DHT22;347;48.780;9.158;2023-06-26T12:04:03;29.30;9.00
728;DHT22;347;48.780;9.158;2023-06-26T12:06:31;29.50;10.00
728;DHT22;347;48.780;9.158;2023-06-26T12:08:58;29.50;9.90
728;DHT22;347;48.780;9.158;2023-06-26T12:11:25;29.30;9.80
728;DHT22;347;48.780;9.158;2023-06-26T12:13:51;29.30;10.30
728;DHT22;347;48.780;9.158;2023-06-26T12:16:17;29.20;10.30
728;DHT22;347;48.780;9.158;2023-06-26T12:18:43;29.10;10.80
728;DHT22;347;48.780;9.158;2023-06-26T12:21:33;28.90;11.10
728;DHT22;347;48.780;9.158;2023-06-26T12:24:13;28.80;11.20
728;DHT22;347;48.780;9.158;2023-06-26T12:26:41;28.70;11.30
728;DHT22;347;48.780;9.158;2023-06-26T12:29:13;28.60;11.60
728;DHT22;347;48.780;9.158;2023-06-26T12:31:43;28.50;11.80
728;DHT22;347;48.780;9.158;2023-06-26T12:34:10;28.60;11.80
728;DHT22;347;48.780;9.158;2023-06-26T12:36:51;29.00;10.90
728;DHT22;347;48.780;9.158;2023-06-26T12:39:18;29.10;10.50
728;DHT22;347;48.780;9.158;2023-06-26T12:42:00;29.10;10.30
728;DHT22;347;48.780;9.158;2023-06-26T12:44:28;29.10;10.20
728;DHT22;347;48.780;9.158;2023-06-26T12:46:56;29.00;10.20
728;DHT22;347;48.780;9.158;2023-06-26T12:49:36;29.00;10.60
728;DHT22;347;48.780;9.158;2023-06-26T12:52:07;28.90;10.60
728;DHT22;347;48.780;9.158;2023-06-26T12:54:36;28.80;11.30
728;DHT22;347;48.780;9.158;2023-06-26T12:57:02;29.00;10.20
728;DHT22;347;48.780;9.158;2023-06-26T12:59:29;29.00;10.40
728;DHT22;347;48.780;9.158;2023-06-26T13:01:56;29.20;9.70
728;DHT22;347;48.780;9.158;2023-06-26T13:04:21;29.40;9.80
728;DHT22;347;48.780;9.158;2023-06-26T13:06:47;29.30;9.50
728;DHT22;347;48.780;9.158;2023-06-26T13:09:12;29.20;10.30
728;DHT22;347;48.780;9.158;2023-06-26T13:11:38;29.10;9.70
728;DHT22;347;48.780;9.158;2023-06-26T13:14:04;29.10;9.90
728;DHT22;347;48.780;9.158;2023-06-26T13:16:29;29.00;10.00
728;DHT22;347;48.780;9.158;2023-06-26T13:18:57;28.80;10.00
728;DHT22;347;48.780;9.158;2023-06-26T13:21:23;28.70;10.30
728;DHT22;347;48.780;9.158;2023-06-26T13:23:48;28.70;10.50
728;DHT22;347;48.780;9.158;2023-06-26T13:26:14;28.70;10.50
728;DHT22;347;48.780;9.158;2023-06-26T13:28:39;28.80;9.70
728;DHT22;347;48.780;9.158;2023-06-26T13:31:05;28.90;9.60
728;DHT22;347;48.780;9.158;2023-06-26T13:33:31;28.90;9.60
728;DHT22;347;48.780;9.158;2023-06-26T13:35:57;28.90;9.60
728;DHT22;347;48.780;9.158;2023-06-26T13:38:23;29.00;9.60
728;DHT22;347;48.780;9.158;2023-06-26T13:40:51;28.90;9.60
728;DHT22;347;48.780;9.158;2023-06-26T13:43:17;29.00;9.40
728;DHT22;347;48.780;9.158;2023-06-26T13:45:42;29.20;8.40
728;DHT22;347;48.780;9.158;2023-06-26T13:48:08;29.30;7.70
728;DHT22;347;48.780;9.158;2023-06-26T13:50:33;29.30;7.80
728;DHT22;347;48.780;9.158;2023-06-26T13:52:59;29.20;7.30
728;DHT22;347;48.780;9.158;2023-06-26T13:55:24;29.20;7.50
728;DHT22;347;48.780;9.158;2023-06-26T13:57:50;29.10;7.30
728;DHT22;347;48.780;9.158;2023-06-26T14:00:16;29.00;6.90
728;DHT22;347;48.780;9.158;2023-06-26T14:02:45;29.00;6.40
728;DHT22;347;48.780;9.158;2023-06-26T14:05:11;28.90;6.70
728;DHT22;347;48.780;9.158;2023-06-26T14:07:37;28.80;6.40
728;DHT22;347;48.780;9.158;2023-06-26T14:10:04;29.00;5.80
728;DHT22;347;48.780;9.158;2023-06-26T14:12:31;29.20;5.10
728;DHT22;347;48.780;9.158;2023-06-26T14:14:57;29.30;5.20
728;DHT22;347;48.780;9.158;2023-06-26T14:17:22;29.30;5.20
728;DHT22;347;48.780;9.158;2023-06-26T14:19:51;29.40;5.30
728;DHT22;347;48.780;9.158;2023-06-26T14:22:17;29.30;4.40
728;DHT22;347;48.780;9.158;2023-06-26T14:24:43;29.30;4.10
728;DHT22;347;48.780;9.158;2023-06-26T14:27:08;29.10;4.70
728;DHT22;347;48.780;9.158;2023-06-26T14:29:35;29.00;4.80
728;DHT22;347;48.780;9.158;2023-06-26T14:32:00;29.00;5.00
728;DHT22;347;48.780;9.158;2023-06-26T14:34:26;29.10;4.60
728;DHT22;347;48.780;9.158;2023-06-26T14:36:51;29.10;5.10
728;DHT22;347;48.780;9.158;2023-06-26T14:39:17;29.00;5.00
728;DHT22;347;48.780;9.158;2023-06-26T14:41:43;28.80;5.20
728;DHT22;347;48.780;9.158;2023-06-26T14:44:08;28.70;5.30
728;DHT22;347;48.780;9.158;2023-06-26T14:46:36;28.80;5.00
728;DHT22;347;48.780;9.158;2023-06-26T14:49:03;28.70;5.30
728;DHT22;347;48.780;9.158;2023-06-26T14:51:28;28.60;5.60
728;DHT22;347;48.780;9.158;2023-06-26T14:53:54;28.50;6.00
728;DHT22;347;48.780;9.158;2023-06-26T14:56:19;28.60;5.30
728;DHT22;347;48.780;9.158;2023-06-26T14:58:45;28.70;5.40
728;DHT22;347;48.780;9.158;2023-06-26T15:01:12;28.70;5.60
728;DHT22;347;48.780;9.158;2023-06-26T15:03:41;28.70;6.10
728;DHT22;347;48.780;9.158;2023-06-26T15:06:06;28.60;6.10
728;DHT22;347;48.780;9.158;2023-06-26T15:08:32;28.60;5.90
728;DHT22;347;48.780;9.158;2023-06-26T15:10:57;28.60;5.90
728;DHT22;347;48.780;9.158;2023-06-26T15:13:23;28.50;6.10
728;DHT22;347;48.780;9.158;2023-06-26T15:15:48;28.40;6.00
728;DHT22;347;48.780;9.158;2023-06-26T15:18:14;28.40;6.10
728;DHT22;347;48.780;9.158;2023-06-26T15:20:40;28.40;6.70
728;DHT22;347;48.780;9.158;2023-06-26T15:23:05;28.30;7.10
728;DHT22;347;48.780;9.158;2023-06-26T15:25:31;28.30;6.80
728;DHT22;347;48.780;9.158;2023-06-26T15:27:57;28.30;6.90
728;DHT22;347;48.780;9.158;2023-06-26T15:30:22;28.20;7.00
728;DHT22;347;48.780;9.158;2023-06-26T15:32:48;28.20;6.80
728;DHT22;347;48.780;9.158;2023-06-26T15:35:14;28.20;6.80
728;DHT22;347;48.780;9.158;2023-06-26T15:37:39;28.20;6.10
728;DHT22;347;48.780;9.158;2023-06-26T15:40:05;28.20;5.80
728;DHT22;347;48.780;9.158;2023-06-26T15:42:31;28.20;5.60
728;DHT22;347;48.780;9.158;2023-06-26T15:44:57;28.30;5.60
728;DHT22;347;48.780;9.158;2023-06-26T15:47:22;28.20;6.40
728;DHT22;347;48.780;9.158;2023-06-26T15:49:48;28.20;6.20
728;DHT22;347;48.780;9.158;2023-06-26T15:52:13;28.10;6.10
728;DHT22;347;48.780;9.158;2023-06-26T15:54:39;27.90;6.40
728;DHT22;347;48.780;9.158;2023-06-26T15:57:05;27.80;6.50
728;DHT22;347;48.780;9.158;2023-06-26T15:59:30;27.70;6.40
728;DHT22;347;48.780;9.158;2023-06-26T16:01:56;27.60;7.00
728;DHT22;347;48.780;9.158;2023-06-26T16:04:21;27.60;7.20
728;DHT22;347;48.780;9.158;2023-06-26T16:06:47;27.40;7.70
728;DHT22;347;48.780;9.158;2023-06-26T16:09:13;27.30;7.60
728;DHT22;347;48.780;9.158;2023-06-26T16:11:40;27.30;7.60
728;DHT22;347;48.780;9.158;2023-06-26T16:14:05;27.20;7.90
728;DHT22;347;48.780;9.158;2023-06-26T16:16:31;27.20;8.10
728;DHT22;347;48.780;9.158;2023-06-26T16:18:56;27.20;8.30
728;DHT22;347;48.780;9.158;2023-06-26T16:21:22;27.20;8.00
728;DHT22;347;48.780;9.158;2023-06-26T16:23:47;27.30;7.80
728;DHT22;347;48.780;9.158;2023-06-26T16:26:13;27.20;7.70
728;DHT22;347;48.780;9.158;2023-06-26T16:28:38;27.20;7.90
728;DHT22;347;48.780;9.158;2023-06-26T16:31:04;27.20;7.80
728;DHT22;347;48.780;9.158;2023-06-26T16:33:29;27.10;7.30
728;DHT22;347;48.780;9.158;2023-06-26T16:35:55;27.00;6.70
728;DHT22;347;48.780;9.158;2023-06-26T16:38:20;26.90;6.90
728;DHT22;347;48.780;9.158;2023-06-26T16:40:46;26.80;6.60
728;DHT22;347;48.780;9.158;2023-06-26T16:43:11;26.70;6.80
728;DHT22;347;48.780;9.158;2023-06-26T16:45:37;26.70;6.70
728;DHT22;347;48.780;9.158;2023-06-26T16:48:03;26.70;6.50
728;DHT22;347;48.780;9.158;2023-06-26T16:50:29;26.60;6.50
728;DHT22;347;48.780;9.158;2023-06-26T16:52:54;26.60;6.10
728;DHT22;347;48.780;9.158;2023-06-26T16:55:20;26.70;6.30
728;DHT22;347;48.780;9.158;2023-06-26T16:57:45;26.70;5.20
728;DHT22;347;48.780;9.158;2023-06-26T17:00:11;26.60;5.40